Time;durP1;ratioP1;P1;durP2;ratioP2;P2;SDS_P1;SDS_P2;PMS_P1;PMS_P2;Temp;Humidity;BMP_temperature;BMP_pressure;BME280_temperature;BME280_humidity;BME280_pressure;Samples;Min_cycle;Max_cycle;Signal;HPM_P1;HPM_P2
2024/03/16 00:00:22;;;;;;;36.78;17.83;;;;;;;;;;5089546;28;20407;-69
2024/03/16 00:03:27;;;;;;;25.85;14.70;;;;;;;;;;5090563;28;20055;-69
2024/03/16 00:06:33;;;;;;;26.70;15.68;;;;;;;;;;5090578;28;20051;-69
2024/03/16 00:09:38;;;;;;;26.73;14.93;;;;;;;;;;5090850;28;20059;-69
2024/03/16 00:12:43;;;;;;;27.35;16.70;;;;;;;;;;5090634;28;20079;-69
2024/03/16 00:15:50;;;;;;;45.97;23.55;;;14.00;98.90;;;;;;5090574;28;20051;-69
2024/03/16 00:18:54;;;;;;;46.70;27.35;;;;;;;;;;5090276;28;20043;-69
2024/03/16 00:21:58;;;;;;;69.13;35.33;;;;;;;;;;5090491;28;20043;-69
2024/03/16 00:25:03;;;;;;;55.60;30.98;;;;;;;;;;5090166;28;20105;-69
2024/03/16 00:28:07;;;;;;;50.50;26.83;;;;;;;;;;5090516;28;20110;-69
2024/03/16 00:31:13;;;;;;;40.53;22.20;;;;;;;;;;5091231;28;20063;-69
2024/03/16 00:34:17;;;;;;;39.78;21.77;;;;;;;;;;5094531;28;20040;-69
2024/03/16 00:37:21;;;;;;;40.97;21.90;;;;;;;;;;5094144;28;20404;-69
2024/03/16 00:40:25;;;;;;;36.08;20.08;;;;;;;;;;5094468;28;20502;-69
2024/03/16 00:43:30;;;;;;;36.80;20.38;;;;;;;;;;5094289;28;20051;-69
2024/03/16 00:46:34;;;;;;;34.05;20.75;;;;;;;;;;5093395;28;20403;-69
2024/03/16 00:49:38;;;;;;;40.85;23.55;;;;;;;;;;5094064;28;20044;-69
2024/03/16 00:52:43;;;;;;;39.40;23.25;;;;;;;;;;5094081;28;20043;-69
2024/03/16 00:55:47;;;;;;;44.58;26.00;;;13.40;99.90;;;;;;5093730;28;20047;-69
2024/03/16 00:58:51;;;;;;;43.67;27.70;;;13.50;99.90;;;;;;5092829;28;20051;-69
2024/03/16 01:01:55;;;;;;;47.90;29.52;;;12.00;99.90;;;;;;5093807;28;20047;-69
2024/03/16 01:04:59;;;;;;;48.60;28.98;;;;;;;;;;5092492;28;20055;-69
2024/03/16 01:08:03;;;;;;;48.28;29.88;;;12.80;99.90;;;;;;5093659;28;20073;-69
2024/03/16 01:11:09;;;;;;;53.60;30.88;;;;;;;;;;5093454;28;20051;-69
2024/03/16 01:14:16;;;;;;;49.33;28.83;;;;;;;;;;5093411;28;20047;-69
2024/03/16 01:17:21;;;;;;;47.70;29.13;;;;;;;;;;5093499;28;20051;-69
2024/03/16 01:20:25;;;;;;;45.85;27.13;;;;;;;;;;5093286;28;20047;-69
2024/03/16 01:23:30;;;;;;;41.25;27.67;;;12.10;99.90;;;;;;5092358;28;20079;-69
2024/03/16 01:26:34;;;;;;;44.83;26.33;;;;;;;;;;5093070;28;20047;-69
2024/03/16 01:29:41;;;;;;;37.92;24.60;;;11.30;99.90;;;;;;5093104;28;20043;-69
2024/03/16 01:32:45;;;;;;;40.17;23.85;;;12.50;99.90;;;;;;5093146;28;20051;-69
2024/03/16 01:36:08;;;;;;;41.70;23.67;;;12.70;99.90;;;;;;5093070;28;20504;-69
2024/03/16 01:39:13;;;;;;;37.90;22.63;;;;;;;;;;5093039;28;20047;-69
2024/03/16 01:42:16;;;;;;;34.75;21.35;;;13.20;99.90;;;;;;5092271;28;20042;-69
2024/03/16 01:45:21;;;;;;;31.85;18.83;;;;;;;;;;5092702;28;20160;-69
2024/03/16 01:48:25;;;;;;;29.83;17.40;;;;;;;;;;5092940;28;20059;-69
2024/03/16 01:51:30;;;;;;;30.48;16.73;;;13.20;99.90;;;;;;5091957;28;20051;-69
2024/03/16 01:54:35;;;;;;;29.10;16.60;;;;;;;;;;5092643;28;20054;-69
2024/03/16 01:57:39;;;;;;;26.17;14.95;;;;;;;;;;5092579;28;20035;-69
2024/03/16 02:00:47;;;;;;;27.90;16.17;;;9.80;99.90;;;;;;5092231;28;20419;-69
2024/03/16 02:03:51;;;;;;;23.08;13.70;;;;;;;;;;5092375;28;20051;-69
2024/03/16 02:06:55;;;;;;;21.75;13.18;;;;;;;;;;5092322;28;20043;-69
2024/03/16 02:10:07;;;;;;;24.85;13.05;;;13.60;99.90;;;;;;5092360;28;20043;-69
2024/03/16 02:13:12;;;;;;;26.63;13.05;;;;;;;;;;5092342;28;20055;-69
2024/03/16 02:16:16;;;;;;;27.00;13.50;;;;;;;;;;5091313;28;20062;-69
2024/03/16 02:19:21;;;;;;;26.40;12.40;;;;;;;;;;5092430;28;20047;-69
2024/03/16 02:22:26;;;;;;;27.38;13.73;;;;;;;;;;5092018;28;20042;-69
2024/03/16 02:25:30;;;;;;;21.48;12.63;;;;;;;;;;5092081;28;20055;-69
2024/03/16 02:28:34;;;;;;;24.83;16.90;;;;;;;;;;5091402;28;20039;-69
2024/03/16 02:31:38;;;;;;;37.17;24.70;;;;;;;;;;5091925;28;20062;-69
2024/03/16 02:34:44;;;;;;;54.67;31.10;;;;;;;;;;5091284;28;20051;-69
2024/03/16 02:37:47;;;;;;;49.70;32.05;;;;;;;;;;5092056;28;20043;-69
2024/03/16 02:40:52;;;;;;;51.33;30.05;;;;;;;;;;5091607;28;20043;-69
2024/03/16 02:43:56;;;;;;;54.47;31.30;;;;;;;;;;5091698;28;20051;-69
2024/03/16 02:47:00;;;;;;;52.92;29.90;;;;;;;;;;5091659;28;20047;-69
2024/03/16 02:50:05;;;;;;;48.47;30.30;;;;;;;;;;5091254;28;20526;-69
2024/03/16 02:53:09;;;;;;;44.92;29.45;;;;;;;;;;5091713;28;20058;-69
2024/03/16 02:56:13;;;;;;;50.05;29.73;;;;;;;;;;5090904;28;20051;-69
2024/03/16 02:59:18;;;;;;;44.40;29.35;;;13.30;99.90;;;;;;5091498;28;20498;-69
2024/03/16 03:02:23;;;;;;;53.13;29.60;;;;;;;;;;5091433;28;20032;-69
2024/03/16 03:05:27;;;;;;;47.95;29.75;;;;;;;;;;5090971;28;20514;-69
2024/03/16 03:08:32;;;;;;;47.45;29.23;;;;;;;;;;5091365;28;20047;-69
2024/03/16 03:11:37;;;;;;;45.28;29.63;;;;;;;;;;5091414;28;20043;-69
2024/03/16 03:14:41;;;;;;;49.38;31.35;;;;;;;;;;5091313;28;20043;-69
2024/03/16 03:17:45;;;;;;;44.53;30.10;;;;;;;;;;5090353;28;20043;-69
2024/03/16 03:20:51;;;;;;;54.92;30.45;;;13.00;99.90;;;;;;5090038;28;20035;-69
2024/03/16 03:23:56;;;;;;;42.10;29.77;;;;;;;;;;5090981;28;20047;-69
2024/03/16 03:27:00;;;;;;;51.63;31.15;;;;;;;;;;5090885;28;20054;-69
2024/03/16 03:30:06;;;;;;;45.55;29.65;;;;;;;;;;5091144;28;20062;-69
2024/03/16 03:33:10;;;;;;;48.38;29.65;;;13.30;99.90;;;;;;5091004;28;20054;-69
2024/03/16 03:36:15;;;;;;;43.45;28.88;;;;;;;;;;5091177;28;20043;-69
2024/03/16 03:39:19;;;;;;;41.45;29.25;;;;;;;;;;5091099;28;20047;-69
2024/03/16 03:42:29;;;;;;;48.28;29.83;;;13.70;99.90;;;;;;5091155;28;20502;-69
2024/03/16 03:48:59;;;;;;;44.55;28.13;;;;;;;;;;5090881;28;20039;-69
2024/03/16 03:52:04;;;;;;;40.97;27.50;;;;;;;;;;5090793;28;20047;-69
2024/03/16 03:55:09;;;;;;;44.28;27.45;;;;;;;;;;5091050;28;20039;-69
2024/03/16 03:58:14;;;;;;;46.10;28.75;;;13.60;99.90;;;;;;5091107;28;20498;-69
2024/03/16 04:01:18;;;;;;;50.85;28.67;;;;;;;;;;5090055;28;20043;-69
2024/03/16 04:04:22;;;;;;;45.03;29.02;;;;;;;;;;5090739;28;20051;-69
2024/03/16 04:07:27;;;;;;;45.28;28.83;;;;;;;;;;5094481;28;20059;-69
2024/03/16 04:10:34;;;;;;;42.40;28.92;;;13.20;99.90;;;;;;5094783;28;20416;-69
2024/03/16 04:13:38;;;;;;;46.63;29.75;;;13.30;99.90;;;;;;5094658;28;20043;-69
2024/03/16 04:16:43;;;;;;;47.35;29.65;;;13.80;99.90;;;;;;5094551;28;20043;-69
2024/03/16 04:19:47;;;;;;;48.40;28.83;;;13.30;99.90;;;;;;5094503;28;20039;-69
2024/03/16 04:22:51;;;;;;;41.83;25.77;;;13.10;99.90;;;;;;5093669;28;20043;-69
2024/03/16 04:25:55;;;;;;;42.83;27.83;;;13.00;99.90;;;;;;5094133;28;20641;-69
2024/03/16 04:28:59;;;;;;;42.30;28.73;;;;;;;;;;5093931;28;20051;-69
2024/03/16 04:32:03;;;;;;;45.67;28.42;;;13.30;99.90;;;;;;5094203;28;20039;-69
2024/03/16 04:35:08;;;;;;;46.15;28.05;;;12.00;99.90;;;;;;5094186;28;20039;-69
2024/03/16 04:38:13;;;;;;;46.00;27.98;;;;;;;;;;5093992;28;20047;-69
2024/03/16 04:41:19;;;;;;;46.20;28.20;;;;;;;;;;5094008;28;20043;-69
2024/03/16 04:44:23;;;;;;;41.47;26.83;;;;;;;;;;5093791;28;20070;-69
2024/03/16 04:47:28;;;;;;;43.47;26.40;;;;;;;;;;5094720;28;20043;-69
2024/03/16 04:50:33;;;;;;;46.72;25.40;;;;;;;;;;5094030;28;20039;-69
2024/03/16 04:53:37;;;;;;;52.42;25.17;;;;;;;;;;5093815;28;20055;-69
2024/03/16 04:56:42;;;;;;;38.28;24.52;;;;;;;;;;5093952;28;20518;-69
2024/03/16 04:59:49;;;;;;;35.58;24.02;;;;;;;;;;5093890;28;20051;-69
2024/03/16 05:02:53;;;;;;;36.13;22.10;;;;;;;;;;5094272;28;20063;-69
2024/03/16 05:05:58;;;;;;;34.55;19.83;;;;;;;;;;5093906;28;20051;-69
2024/03/16 05:09:06;;;;;;;35.40;20.98;;;;;;;;;;5093814;28;20393;-69
2024/03/16 05:12:11;;;;;;;29.25;17.50;;;;;;;;;;5093567;28;20047;-69
2024/03/16 05:15:15;;;;;;;35.78;17.70;;;;;;;;;;5093266;28;20067;-69
2024/03/16 05:18:19;;;;;;;28.48;15.60;;;;;;;;;;5092363;28;20043;-69
2024/03/16 05:21:24;;;;;;;23.77;14.98;;;;;;;;;;5093368;28;20051;-69
2024/03/16 05:24:29;;;;;;;25.73;15.07;;;;;;;;;;5093269;28;20095;-69
2024/03/16 05:27:35;;;;;;;31.40;15.90;;;;;;;;;;5093342;28;20096;-69
2024/03/16 05:30:39;;;;;;;27.55;14.98;;;;;;;;;;5092850;28;20042;-69
2024/03/16 05:33:43;;;;;;;30.00;17.45;;;;;;;;;;5092846;28;20050;-69
2024/03/16 05:36:48;;;;;;;28.08;15.82;;;;;;;;;;5092206;28;20051;-69
2024/03/16 05:39:52;;;;;;;25.70;14.60;;;;;;;;;;5092934;28;20039;-69
2024/03/16 05:42:56;;;;;;;23.60;14.25;;;;;;;;;;5092854;28;20043;-69
2024/03/16 05:46:00;;;;;;;31.08;15.90;;;;;;;;;;5092295;28;20051;-69
2024/03/16 05:49:05;;;;;;;28.60;17.52;;;;;;;;;;5093098;28;20039;-69
2024/03/16 05:52:09;;;;;;;32.42;18.08;;;;;;;;;;5092996;28;20043;-69
2024/03/16 05:55:15;;;;;;;32.25;18.58;;;;;;;;;;5091976;28;20039;-69
2024/03/16 05:58:21;;;;;;;29.90;18.52;;;;;;;;;;5092817;28;20067;-69
2024/03/16 06:01:25;;;;;;;31.65;18.35;;;;;;;;;;5092427;28;20047;-69
2024/03/16 06:04:30;;;;;;;31.40;19.05;;;;;;;;;;5092420;28;20051;-69
2024/03/16 06:07:34;;;;;;;36.80;19.48;;;;;;;;;;5091850;28;20043;-69
2024/03/16 06:10:38;;;;;;;38.92;20.50;;;;;;;;;;5092192;28;20047;-69
2024/03/16 06:13:44;;;;;;;34.97;20.13;;;;;;;;;;5092591;28;20392;-69
2024/03/16 06:16:48;;;;;;;37.13;22.38;;;;;;;;;;5092221;28;20392;-69
2024/03/16 06:19:54;;;;;;;37.58;23.13;;;;;;;;;;5091322;28;20043;-69
2024/03/16 06:22:58;;;;;;;34.70;22.63;;;;;;;;;;5092213;28;20126;-69
2024/03/16 06:26:06;;;;;;;39.83;22.00;;;;;;;;;;5091735;28;20059;-69
2024/03/16 06:29:10;;;;;;;34.55;19.95;;;;;;;;;;5092198;28;20098;-69
2024/03/16 06:32:20;;;;;;;31.33;20.88;;;;;;;;;;5091071;28;20055;-69
2024/03/16 06:35:24;;;;;;;38.45;23.27;;;;;;;;;;5092148;28;20050;-69
2024/03/16 06:38:29;;;;;;;37.22;23.50;;;12.30;99.90;;;;;;5092036;28;20085;-68
2024/03/16 06:41:34;;;;;;;36.58;21.95;;;12.80;99.90;;;;;;5091233;28;20638;-69
2024/03/16 06:44:39;;;;;;;32.80;21.60;;;;;;;;;;5091565;28;20074;-69
2024/03/16 06:47:43;;;;;;;34.22;21.25;;;;;;;;;;5091976;28;20043;-69
2024/03/16 06:50:49;;;;;;;28.50;18.67;;;;;;;;;;5091600;28;20050;-68
2024/03/16 06:53:53;;;;;;;26.98;16.67;;;;;;;;;;5091751;28;20046;-68
2024/03/16 06:56:57;;;;;;;29.77;17.00;;;;;;;;;;5079174;28;20396;-69
2024/03/16 07:00:02;;;;;;;24.55;15.90;;;;;;;;;;5091598;28;20035;-69
2024/03/16 07:03:06;;;;;;;31.65;15.82;;;;;;;;;;5091611;28;20513;-69
2024/03/16 07:06:10;;;;;;;28.45;15.43;;;;;;;;;;5090558;28;20055;-68
2024/03/16 07:09:18;;;;;;;23.45;15.13;;;;;;;;;;5091449;28;20043;-71
2024/03/16 07:12:22;;;;;;;27.52;13.65;;;;;;;;;;5091471;28;20043;-69
2024/03/16 07:15:26;;;;;;;21.92;12.98;;;;;;;;;;5091035;28;20043;-69
2024/03/16 07:18:32;;;;;;;22.92;12.68;;;;;;;;;;5091336;28;20095;-69
2024/03/16 07:21:37;;;;;;;16.65;9.48;;;;;;;;;;5090796;28;20106;-68
2024/03/16 07:24:41;;;;;;;17.95;9.73;;;;;;;;;;5090913;28;20066;-69
2024/03/16 07:27:45;;;;;;;14.25;8.60;;;;;;;;;;5090900;28;20048;-69
2024/03/16 07:30:55;;;;;;;19.92;8.73;;;13.70;99.90;;;;;;5090757;28;20040;-69
2024/03/16 07:33:59;;;;;;;17.75;8.38;;;;;;;;;;5090070;28;20043;-69
2024/03/16 07:37:04;;;;;;;13.20;7.25;;;;;;;;;;5091115;28;20036;-69
2024/03/16 07:40:17;;;;;;;17.10;6.55;;;;;;;;;;5090587;28;20040;-69
2024/03/16 07:43:22;;;;;;;12.85;5.40;;;;;;;;;;5090688;28;20036;-70
2024/03/16 07:46:26;;;;;;;14.82;6.53;;;;;;;;;;5090793;28;20048;-67
2024/03/16 07:49:30;;;;;;;16.50;7.18;;;;;;;;;;5090675;28;20039;-69
2024/03/16 07:52:35;;;;;;;15.90;6.47;;;;;;;;;;5090050;28;20043;-70
2024/03/16 07:55:39;;;;;;;23.63;7.40;;;;;;;;;;5090859;28;20427;-68
2024/03/16 07:58:43;;;;;;;15.55;7.20;;;;;;;;;;5090908;28;20509;-68
2024/03/16 08:01:48;;;;;;;13.93;7.28;;;;;;;;;;5090131;28;20644;-67
2024/03/16 08:04:52;;;;;;;12.55;7.07;;;;;;;;;;5090263;28;20116;-67
2024/03/16 08:07:57;;;;;;;17.40;7.35;;;;;;;;;;5090429;28;20035;-67
2024/03/16 08:11:01;;;;;;;18.55;8.40;;;;;;;;;;5090618;28;20051;-69
2024/03/16 08:14:08;;;;;;;12.40;6.72;;;;;;;;;;5090626;28;20044;-70
2024/03/16 08:17:12;;;;;;;19.92;9.25;;;;;;;;;;5090577;28;20044;-68
2024/03/16 08:20:17;;;;;;;19.70;9.50;;;;;;;;;;5090185;28;20494;-68
2024/03/16 08:23:21;;;;;;;19.67;8.10;;;;;;;;;;5090537;28;20055;-69
2024/03/16 08:26:25;;;;;;;15.55;7.88;;;;;;;;;;5089338;28;20522;-69
2024/03/16 08:29:30;;;;;;;19.20;9.05;;;;;;;;;;5090300;28;20391;-69
2024/03/16 08:32:34;;;;;;;17.70;9.57;;;;;;;;;;5090625;28;20044;-69
2024/03/16 08:35:38;;;;;;;22.00;10.73;;;;;;;;;;5090253;28;20036;-68
2024/03/16 08:38:43;;;;;;;19.55;10.02;;;;;;;;;;5090253;28;20051;-69
2024/03/16 08:41:47;;;;;;;34.40;17.75;;;;;;;;;;5089335;28;20047;-69
2024/03/16 08:44:52;;;;;;;54.28;29.92;;;;;;;;;;5090272;28;20055;-69
2024/03/16 08:47:56;;;;;;;36.38;17.40;;;;;;;;;;5089649;28;20506;-70
2024/03/16 08:51:01;;;;;;;25.05;10.18;;;;;;;;;;5089926;28;20424;-69
2024/03/16 08:54:05;;;;;;;17.58;8.05;;;;;;;;;;5093077;28;20055;-70
2024/03/16 08:57:09;;;;;;;12.45;6.78;;;;;;;;;;5092849;28;20043;-68
2024/03/16 09:00:14;;;;;;;11.90;5.38;;;;;;;;;;5092870;28;20099;-68
2024/03/16 09:03:18;;;;;;;16.67;6.18;;;;;;;;;;5093080;28;20051;-68
2024/03/16 09:06:22;;;;;;;20.05;7.13;;;;;;;;;;5093004;28;20048;-67
2024/03/16 09:09:27;;;;;;;19.17;6.78;;;;;;;;;;5093631;28;20365;-67
2024/03/16 09:12:31;;;;;;;12.40;6.97;;;;;;;;;;5093587;28;20042;-68
2024/03/16 09:15:36;;;;;;;17.02;7.63;;;;;;;;;;5093131;28;20045;-68
2024/03/16 09:18:40;;;;;;;13.50;5.80;;;;;;;;;;5092759;28;20032;-67
2024/03/16 09:21:44;;;;;;;15.68;5.78;;;;;;;;;;5093484;28;20044;-67
2024/03/16 09:24:49;;;;;;;16.15;6.22;;;;;;;;;;5092997;28;20055;-66
2024/03/16 09:27:54;;;;;;;18.45;7.00;;;;;;;;;;5094187;28;20036;-67
2024/03/16 09:30:59;;;;;;;14.10;7.53;;;;;;;;;;5093075;28;20051;-69
2024/03/16 09:34:06;;;;;;;14.60;8.60;;;;;;;;;;5092184;28;20047;-70
2024/03/16 09:37:11;;;;;;;17.38;8.40;;;;;;;;;;5093002;28;20057;-70
2024/03/16 09:40:15;;;;;;;16.42;8.88;;;;;;;;;;5092137;28;20040;-70
2024/03/16 09:43:19;;;;;;;13.60;7.68;;;;;;;;;;5092947;28;20044;-70
2024/03/16 09:46:31;;;;;;;12.50;6.03;;;14.60;99.90;;;;;;5092827;28;20044;-70
2024/03/16 09:49:35;;;;;;;11.70;5.93;;;;;;;;;;5092829;28;20047;-70
2024/03/16 09:52:40;;;;;;;17.33;5.82;;;;;;;;;;5092728;28;20063;-70
2024/03/16 09:55:45;;;;;;;13.77;6.68;;;;;;;;;;5092662;28;20079;-71
2024/03/16 09:58:49;;;;;;;16.67;6.60;;;;;;;;;;5092722;28;20499;-71
2024/03/16 10:01:53;;;;;;;18.27;7.47;;;;;;;;;;5092507;28;20039;-69
2024/03/16 10:04:58;;;;;;;13.88;6.85;;;;;;;;;;5092100;28;20576;-69
2024/03/16 10:08:04;;;;;;;17.13;7.88;;;16.00;99.90;;;;;;5093029;28;20475;-70
2024/03/16 10:11:14;;;;;;;16.40;7.43;;;16.50;99.90;;;;;;5092362;28;20158;-70
2024/03/16 10:14:19;;;;;;;12.40;6.25;;;;;;;;;;5092614;28;20573;-71
2024/03/16 10:17:23;;;;;;;13.60;7.63;;;17.00;99.60;;;;;;5092761;28;20063;-70
2024/03/16 10:20:28;;;;;;;12.02;6.63;;;;;;;;;;5092645;28;20031;-70
2024/03/16 10:23:32;;;;;;;14.02;5.72;;;;;;;;;;5092589;28;20040;-70
2024/03/16 10:26:36;;;;;;;12.77;5.68;;;;;;;;;;5091942;28;20048;-70
2024/03/16 10:29:41;;;;;;;14.52;7.10;;;;;;;;;;5091798;28;20043;-69
2024/03/16 10:32:49;;;;;;;14.02;6.45;;;18.40;98.60;;;;;;5091110;28;20043;-69
2024/03/16 10:35:55;;;;;;;16.65;7.90;;;;;;;;;;5091820;28;20043;-70
2024/03/16 10:39:00;;;;;;;15.18;7.65;;;;;;;;;;5091910;28;20036;-70
2024/03/16 10:42:05;;;;;;;18.35;6.82;;;;;;;;;;5091598;28;20505;-70
2024/03/16 10:45:13;;;;;;;15.90;7.00;;;17.40;98.40;;;;;;5091649;28;20053;-70
2024/03/16 10:48:18;;;;;;;15.43;6.13;;;;;;;;;;5091340;28;20038;-70
2024/03/16 10:51:23;;;;;;;11.15;4.43;;;;;;;;;;5090696;28;20036;-70
2024/03/16 10:54:27;;;;;;;5.57;3.85;;;;;;;;;;5090547;28;20040;-70
2024/03/16 10:57:31;;;;;;;14.63;5.32;;;;;;;;;;5090497;28;20484;-71
2024/03/16 11:00:36;;;;;;;12.38;5.22;;;;;;;;;;5091244;28;20043;-70
2024/03/16 11:03:42;;;;;;;13.88;6.47;;;;;;;;;;5091325;28;20044;-70
2024/03/16 11:06:48;;;;;;;11.57;5.47;;;14.80;97.00;;;;;;5091405;28;20510;-70
2024/03/16 11:09:56;;;;;;;8.63;4.25;;;;;;;;;;5089818;28;20039;-70
2024/03/16 11:13:20;;;;;;;7.63;3.88;;;17.70;97.00;;;;;;5091300;28;20044;-70
2024/03/16 11:16:29;;;;;;;9.73;4.03;;;18.20;96.40;;;;;;5090579;28;20130;-70
2024/03/16 11:19:35;;;;;;;10.18;3.85;;;;;;;;;;5091185;28;20055;-70
2024/03/16 11:22:39;;;;;;;10.68;3.85;;;;;;;;;;5090608;28;20055;-70
2024/03/16 11:25:43;;;;;;;16.55;4.93;;;;;;;;;;5090492;28;20070;-70
2024/03/16 11:28:48;;;;;;;9.45;4.00;;;;;;;;;;5090971;28;20036;-71
2024/03/16 11:31:56;;;;;;;8.93;3.95;;;;;;;;;;5090983;28;20036;-71
2024/03/16 11:35:12;;;;;;;10.00;3.83;;;18.40;96.60;;;;;;5090761;28;20040;-70
2024/03/16 11:38:16;;;;;;;9.75;4.30;;;;;;;;;;5090790;28;20487;-71
2024/03/16 11:41:21;;;;;;;8.57;4.30;;;;;;;;;;5089989;28;20472;-70
2024/03/16 11:44:25;;;;;;;9.70;4.45;;;;;;;;;;5090880;28;20040;-70
2024/03/16 11:47:30;;;;;;;14.50;4.45;;;;;;;;;;5091013;28;20040;-70
2024/03/16 11:50:34;;;;;;;13.65;4.43;;;;;;;;;;5090873;28;20638;-69
2024/03/16 11:53:40;;;;;;;8.38;3.63;;;;;;;;;;5090538;28;20048;-70
2024/03/16 11:56:44;;;;;;;10.38;4.75;;;18.10;96.50;;;;;;5090418;28;20036;-70
2024/03/16 11:59:49;;;;;;;8.93;4.07;;;;;;;;;;5089647;28;20043;-70
2024/03/16 12:02:54;;;;;;;9.90;3.70;;;20.40;97.20;;;;;;5090540;28;20040;-69
2024/03/16 12:05:59;;;;;;;10.32;3.30;;;;;;;;;;5090429;28;20051;-70
2024/03/16 12:09:13;;;;;;;10.65;3.65;;;;;;;;;;5090624;28;20064;-70
2024/03/16 12:12:17;;;;;;;7.20;2.80;;;;;;;;;;5090920;28;20036;-70
2024/03/16 12:15:22;;;;;;;6.85;2.80;;;;;;;;;;5090680;28;20040;-70
2024/03/16 12:18:31;;;;;;;10.00;3.03;;;;;;;;;;5090621;28;20028;-70
2024/03/16 12:21:41;;;;;;;10.10;3.10;;;19.50;97.30;;;;;;5090682;28;20055;-69
2024/03/16 12:24:45;;;;;;;9.38;4.05;;;;;;;;;;5090414;28;20043;-70
2024/03/16 12:27:50;;;;;;;10.05;2.53;;;17.20;96.90;;;;;;5093105;28;20445;-70
2024/03/16 12:30:55;;;;;;;7.47;2.83;;;;;;;;;;5094298;28;20047;-70
2024/03/16 12:33:59;;;;;;;19.27;4.68;;;;;;;;;;5094530;28;20036;-70
2024/03/16 12:37:04;;;;;;;9.13;2.70;;;16.90;97.50;;;;;;5094465;28;20036;-71
2024/03/16 12:40:11;;;;;;;6.60;2.78;;;;;;;;;;5093963;28;20043;-70
2024/03/16 12:43:16;;;;;;;7.82;2.50;;;;;;;;;;5093301;28;20028;-71
2024/03/16 12:46:20;;;;;;;5.50;2.33;;;;;;;;;;5093924;28;20388;-70
2024/03/16 12:49:25;;;;;;;14.13;3.08;;;17.30;97.40;;;;;;5093863;28;20412;-71
2024/03/16 12:52:29;;;;;;;18.80;2.85;;;;;;;;;;5093918;28;20407;-70
2024/03/16 12:55:33;;;;;;;7.45;2.50;;;;;;;;;;5093103;28;20032;-70
2024/03/16 12:58:38;;;;;;;6.75;2.55;;;;;;;;;;5093651;28;20040;-71
2024/03/16 13:01:42;;;;;;;9.68;2.80;;;;;;;;;;5094006;28;20435;-71
2024/03/16 13:04:46;;;;;;;7.13;2.33;;;;;;;;;;5093927;28;20040;-69
2024/03/16 13:07:51;;;;;;;10.65;2.75;;;;;;;;;;5093938;28;20044;-69
2024/03/16 13:10:55;;;;;;;9.75;2.45;;;;;;;;;;5093552;28;20119;-69
2024/03/16 13:14:00;;;;;;;7.07;2.22;;;;;;;;;;5093657;28;20040;-69
2024/03/16 13:17:04;;;;;;;9.90;2.10;;;;;;;;;;5093427;28;20649;-69
2024/03/16 13:20:09;;;;;;;5.35;1.90;;;;;;;;;;5092919;28;20040;-69
2024/03/16 13:23:13;;;;;;;7.65;2.30;;;;;;;;;;5092245;28;20040;-68
2024/03/16 13:26:18;;;;;;;5.35;2.00;;;;;;;;;;5093017;28;20052;-68
2024/03/16 13:29:23;;;;;;;10.40;2.83;;;;;;;;;;5092042;28;20036;-68
2024/03/16 13:32:28;;;;;;;7.38;2.67;;;;;;;;;;5092666;28;20043;-69
2024/03/16 13:35:33;;;;;;;8.18;2.65;;;;;;;;;;5093279;28;20040;-69
2024/03/16 13:38:40;;;;;;;8.82;1.90;;;;;;;;;;5092187;28;20048;-68
2024/03/16 13:41:45;;;;;;;7.55;1.80;;;18.10;96.00;;;;;;5092884;28;20040;-67
2024/03/16 13:44:51;;;;;;;9.20;2.67;;;;;;;;;;5092776;28;20447;-68
2024/03/16 13:47:58;;;;;;;8.27;2.22;;;19.10;96.50;;;;;;5092923;28;20044;-68
2024/03/16 13:51:04;;;;;;;8.50;2.30;;;;;;;;;;5092932;28;20047;-68
2024/03/16 13:54:08;;;;;;;5.97;2.30;;;;;;;;;;5091986;28;20044;-68
2024/03/16 13:57:13;;;;;;;7.68;2.90;;;;;;;;;;5092228;28;20040;-68
2024/03/16 14:00:19;;;;;;;5.95;2.50;;;;;;;;;;5092916;28;20036;-68
2024/03/16 14:03:22;;;;;;;7.03;2.53;;;;;;;;;;5092555;28;20040;-68
2024/03/16 14:06:27;;;;;;;10.68;2.55;;;;;;;;;;5091451;28;20453;-69
2024/03/16 14:09:38;;;;;;;8.70;2.40;;;;;;;;;;5092389;28;20415;-68
2024/03/16 14:12:43;;;;;;;5.57;2.53;;;;;;;;;;5092398;28;20048;-68
2024/03/16 14:15:48;;;;;;;11.93;3.03;;;;;;;;;;5092424;28;20035;-70
2024/03/16 14:18:52;;;;;;;8.23;2.90;;;;;;;;;;5091365;28;20048;-69
2024/03/16 14:21:56;;;;;;;6.20;2.70;;;;;;;;;;5091059;28;20040;-68
2024/03/16 14:25:00;;;;;;;5.38;2.08;;;;;;;;;;5091676;28;20036;-68
2024/03/16 14:28:05;;;;;;;8.95;2.15;;;;;;;;;;5092407;28;20055;-69
2024/03/16 14:31:09;;;;;;;6.70;2.33;;;;;;;;;;5091938;28;20416;-69
2024/03/16 14:34:14;;;;;;;7.18;2.13;;;;;;;;;;5091895;28;20356;-69
2024/03/16 14:37:18;;;;;;;4.85;2.47;;;;;;;;;;5091020;28;20040;-69
2024/03/16 14:40:23;;;;;;;7.70;2.50;;;;;;;;;;5091827;28;20036;-68
2024/03/16 14:43:33;;;;;;;10.48;2.80;;;17.50;97.00;;;;;;5091863;28;20036;-68
2024/03/16 14:46:37;;;;;;;6.32;1.90;;;;;;;;;;5091579;28;20071;-69
2024/03/16 14:49:41;;;;;;;10.00;2.80;;;;;;;;;;5090933;28;20472;-70
2024/03/16 14:52:56;;;;;;;6.18;2.28;;;17.50;97.10;;;;;;5092135;28;20063;-69
2024/03/16 14:56:00;;;;;;;10.43;2.78;;;;;;;;;;5090408;28;20047;-69
2024/03/16 14:59:04;;;;;;;8.70;3.30;;;;;;;;;;5091441;28;20050;-69
2024/03/16 15:02:09;;;;;;;12.75;2.88;;;;;;;;;;5091249;28;20032;-69
2024/03/16 15:05:18;;;;;;;8.98;2.65;;;;;;;;;;5089988;28;20451;-69
2024/03/16 15:08:22;;;;;;;8.23;2.20;;;;;;;;;;5091543;28;20044;-69
2024/03/16 15:11:26;;;;;;;5.43;2.20;;;;;;;;;;5091509;28;20036;-69
2024/03/16 15:14:31;;;;;;;8.32;3.13;;;;;;;;;;5091584;28;20036;-69
2024/03/16 15:17:35;;;;;;;6.80;2.58;;;;;;;;;;5091737;28;20036;-69
2024/03/16 15:20:40;;;;;;;13.38;3.22;;;;;;;;;;5090988;28;20044;-69
2024/03/16 15:23:47;;;;;;;6.15;2.65;;;;;;;;;;5091056;28;20032;-69
2024/03/16 15:27:06;;;;;;;12.45;3.00;;;17.10;97.70;;;;;;5091500;28;20377;-69
2024/03/16 15:30:11;;;;;;;8.05;2.28;;;;;;;;;;5091506;28;20043;-69
2024/03/16 15:33:18;;;;;;;9.15;2.20;;;;;;;;;;5078759;28;20092;-69
2024/03/16 15:36:23;;;;;;;5.00;2.00;;;;;;;;;;5090386;28;20059;-69
2024/03/16 15:39:27;;;;;;;8.82;2.47;;;;;;;;;;5090917;28;20032;-69
2024/03/16 15:42:32;;;;;;;7.70;2.70;;;;;;;;;;5090893;28;20047;-69
2024/03/16 15:45:38;;;;;;;12.55;2.90;;;;;;;;;;5090977;28;20048;-69
2024/03/16 15:48:42;;;;;;;10.57;1.98;;;;;;;;;;5090779;28;20392;-69
2024/03/16 15:51:46;;;;;;;4.78;2.25;;;;;;;;;;5090297;28;20040;-69
2024/03/16 15:54:50;;;;;;;8.52;2.55;;;;;;;;;;5090186;28;20032;-69
2024/03/16 15:57:57;;;;;;;9.07;2.70;;;;;;;;;;5091008;28;20047;-69
2024/03/16 16:01:02;;;;;;;8.85;2.97;;;;;;;;;;5090678;28;20483;-69
2024/03/16 16:04:07;;;;;;;13.80;3.20;;;;;;;;;;5094789;28;20036;-69
2024/03/16 16:07:12;;;;;;;6.78;2.80;;;;;;;;;;5094568;28;20044;-69
2024/03/16 16:10:19;;;;;;;12.80;3.25;;;;;;;;;;5094802;28;20028;-69
2024/03/16 16:13:24;;;;;;;5.15;2.22;;;;;;;;;;5094948;28;20051;-69
2024/03/16 16:16:29;;;;;;;7.63;2.20;;;;;;;;;;5094881;28;20616;-69
2024/03/16 16:19:34;;;;;;;6.50;2.65;;;;;;;;;;5094740;28;20040;-69
2024/03/16 16:22:38;;;;;;;8.45;2.85;;;;;;;;;;5094651;28;20032;-69
2024/03/16 16:25:42;;;;;;;11.18;4.00;;;;;;;;;;5094206;28;20048;-70
2024/03/16 16:28:47;;;;;;;8.40;2.70;;;;;;;;;;5094151;28;20037;-70
2024/03/16 16:31:52;;;;;;;8.75;3.05;;;;;;;;;;5094212;28;20035;-69
2024/03/16 16:34:57;;;;;;;8.02;3.00;;;;;;;;;;5094092;28;20032;-69
2024/03/16 16:38:01;;;;;;;12.70;3.67;;;16.70;97.70;;;;;;5094283;28;20387;-69
2024/03/16 16:41:07;;;;;;;8.27;3.50;;;;;;;;;;5094007;28;20415;-69
2024/03/16 16:44:11;;;;;;;12.52;3.42;;;;;;;;;;5094285;28;20036;-69
2024/03/16 16:47:15;;;;;;;9.18;4.07;;;;;;;;;;5093054;28;20356;-69
2024/03/16 16:50:20;;;;;;;12.20;4.55;;;;;;;;;;5094072;28;20028;-69
2024/03/16 16:53:25;;;;;;;9.15;3.55;;;;;;;;;;5094029;28;20229;-68
2024/03/16 16:56:29;;;;;;;10.45;3.13;;;;;;;;;;5093862;28;20032;-69
2024/03/16 16:59:33;;;;;;;10.68;4.68;;;;;;;;;;5093764;28;20506;-69
2024/03/16 17:02:41;;;;;;;9.65;4.40;;;;;;;;;;5093559;28;20361;-68
2024/03/16 17:05:46;;;;;;;11.65;6.07;;;;;;;;;;5093312;28;20043;-68
2024/03/16 17:08:51;;;;;;;10.60;4.10;;;;;;;;;;5092686;28;20043;-68
2024/03/16 17:11:55;;;;;;;10.50;4.35;;;;;;;;;;5093586;28;20044;-69
2024/03/16 17:15:02;;;;;;;14.05;6.47;;;;;;;;;;5091407;28;20189;-69
2024/03/16 17:18:06;;;;;;;26.52;11.07;;;;;;;;;;5093497;28;20053;-69
2024/03/16 17:21:13;;;;;;;21.05;8.02;;;;;;;;;;5093519;28;20392;-69
2024/03/16 17:24:18;;;;;;;15.18;8.00;;;;;;;;;;5093365;28;20048;-68
2024/03/16 17:27:22;;;;;;;11.38;4.63;;;;;;;;;;5092832;28;20044;-68
2024/03/16 17:30:27;;;;;;;15.05;4.43;;;;;;;;;;5093096;28;20028;-69
2024/03/16 17:33:31;;;;;;;13.32;4.68;;;;;;;;;;5093151;28;20042;-69
2024/03/16 17:36:36;;;;;;;12.05;5.10;;;;;;;;;;5092254;28;20044;-69
2024/03/16 17:39:49;;;;;;;15.40;5.82;;;16.60;99.80;;;;;;5093072;28;20048;-69
2024/03/16 17:42:53;;;;;;;14.43;5.90;;;;;;;;;;5092766;28;20066;-68
2024/03/16 17:46:01;;;;;;;9.65;5.57;;;;;;;;;;5092934;28;20051;-68
2024/03/16 17:49:05;;;;;;;14.35;6.40;;;;;;;;;;5092890;28;20040;-69